createdAt,value
2023-01-07T00:01:37.658Z,15.55
2023-01-07T00:04:08.167Z,15.50
2023-01-07T00:06:38.948Z,15.43
2023-01-07T00:09:09.559Z,15.34
2023-01-07T00:11:40.250Z,15.21
2023-01-07T00:14:11.654Z,15.14
2023-01-07T00:16:41.385Z,15.11
2023-01-07T00:19:14.660Z,15.04
2023-01-07T00:21:43.928Z,14.98
2023-01-07T00:24:13.364Z,14.94
2023-01-07T00:26:42.496Z,14.89
2023-01-07T00:29:11.239Z,14.83
2023-01-07T00:31:42.437Z,14.74
2023-01-07T00:34:11.460Z,14.65
2023-01-07T00:36:45.730Z,14.60
2023-01-07T00:39:19.394Z,14.55
2023-01-07T00:42:07.070Z,14.49
2023-01-07T00:44:36.154Z,14.40
2023-01-07T00:47:04.574Z,14.33
2023-01-07T00:49:32.885Z,14.29
2023-01-07T00:52:03.842Z,14.25
2023-01-07T00:54:32.356Z,14.23
2023-01-07T00:57:00.613Z,14.19
2023-01-07T00:59:28.894Z,14.11
2023-01-07T01:01:57.302Z,14.06
2023-01-07T01:04:25.706Z,14.00
2023-01-07T01:06:54.032Z,13.96
2023-01-07T01:09:23.214Z,13.96
2023-01-07T01:11:51.607Z,13.95
2023-01-07T01:14:19.906Z,13.92
2023-01-07T01:16:48.515Z,13.85
2023-01-07T01:19:17.654Z,13.83
2023-01-07T01:21:46.284Z,13.82
2023-01-07T01:24:14.674Z,13.78
2023-01-07T01:26:43.020Z,13.75
2023-01-07T01:29:11.922Z,13.72
2023-01-07T01:31:40.421Z,13.70
2023-01-07T01:34:08.910Z,13.67
2023-01-07T01:36:37.994Z,13.62
2023-01-07T01:39:06.710Z,13.56
2023-01-07T01:41:36.721Z,13.55
2023-01-07T01:44:39.050Z,13.52
2023-01-07T01:47:35.180Z,13.48
2023-01-07T01:50:33.301Z,13.42
2023-01-07T01:53:09.832Z,13.39
2023-01-07T01:56:00.158Z,13.38
2023-01-07T01:58:42.329Z,13.37
2023-01-07T02:01:11.021Z,13.34
2023-01-07T02:03:40.283Z,13.32
2023-01-07T02:06:15.526Z,13.31
2023-01-07T02:08:43.873Z,13.30
2023-01-07T02:11:41.146Z,13.28
2023-01-07T02:14:34.065Z,13.23
2023-01-07T02:17:28.936Z,13.22
2023-01-07T02:20:29.645Z,13.21
2023-01-07T02:23:19.245Z,13.22
2023-01-07T02:26:08.567Z,13.23
2023-01-07T02:29:00.933Z,13.23
2023-01-07T02:31:55.642Z,13.25
2023-01-07T02:34:44.221Z,13.27
2023-01-07T02:37:32.749Z,13.31
2023-01-07T02:40:28.107Z,13.36
2023-01-07T02:43:04.823Z,13.38
2023-01-07T02:45:45.681Z,13.41
2023-01-07T02:48:17.644Z,13.40
2023-01-07T02:50:45.969Z,13.38
2023-01-07T02:53:19.609Z,13.37
2023-01-07T02:56:10.944Z,13.35
2023-01-07T02:58:50.495Z,13.35
2023-01-07T03:01:55.218Z,13.37
2023-01-07T03:04:39.307Z,13.33
2023-01-07T03:07:39.229Z,13.32
2023-01-07T03:10:26.816Z,13.31
2023-01-07T03:13:05.534Z,13.30
2023-01-07T03:15:41.283Z,13.26
2023-01-07T03:18:19.923Z,13.25
2023-01-07T03:20:53.843Z,13.24
2023-01-07T03:23:26.831Z,13.23
2023-01-07T03:25:57.336Z,13.20
2023-01-07T03:28:32.666Z,13.17
2023-01-07T03:31:02.815Z,13.14
2023-01-07T03:34:17.371Z,13.10
2023-01-07T03:36:54.008Z,13.04
2023-01-07T03:39:25.519Z,13.00
2023-01-07T03:42:16.209Z,13.01
2023-01-07T03:44:44.660Z,13.03
2023-01-07T03:47:13.711Z,13.04
2023-01-07T03:49:42.005Z,13.06
2023-01-07T03:52:10.446Z,13.04
2023-01-07T03:54:38.816Z,13.03
2023-01-07T03:57:07.190Z,13.01
2023-01-07T03:59:35.945Z,13.00
2023-01-07T04:02:04.502Z,13.00
2023-01-07T04:04:33.384Z,12.99
2023-01-07T04:07:01.777Z,12.98
2023-01-07T04:09:30.324Z,12.98
2023-01-07T04:11:58.672Z,12.98
2023-01-07T04:14:27.106Z,13.00
2023-01-07T04:16:55.580Z,13.00
2023-01-07T04:19:24.094Z,12.98
2023-01-07T04:21:52.470Z,12.98
2023-01-07T04:24:20.801Z,12.97
2023-01-07T04:26:49.131Z,12.95
2023-01-07T04:29:18.874Z,12.91
2023-01-07T04:31:48.405Z,12.90
2023-01-07T04:34:17.152Z,12.88
2023-01-07T04:36:45.645Z,12.89
2023-01-07T04:39:14.005Z,12.86
2023-01-07T04:41:42.277Z,12.87
2023-01-07T04:44:10.833Z,12.87
2023-01-07T04:46:39.124Z,12.88
2023-01-07T04:49:07.466Z,12.92
2023-01-07T04:51:35.925Z,12.92
2023-01-07T04:54:04.383Z,12.94
2023-01-07T04:56:32.732Z,12.94
2023-01-07T04:59:01.209Z,12.95
2023-01-07T05:01:31.888Z,12.94
2023-01-07T05:04:00.772Z,12.94
2023-01-07T05:06:29.165Z,12.94
2023-01-07T05:08:57.544Z,12.94
2023-01-07T05:11:26.336Z,12.93
2023-01-07T05:13:54.893Z,12.92
2023-01-07T05:16:23.258Z,12.90
2023-01-07T05:18:51.604Z,12.90
2023-01-07T05:21:19.931Z,12.92
2023-01-07T05:23:48.333Z,12.91
2023-01-07T05:26:17.829Z,12.94
2023-01-07T05:28:46.284Z,12.93
2023-01-07T05:31:14.720Z,12.93
2023-01-07T05:33:43.096Z,12.93
2023-01-07T05:36:11.929Z,12.94
2023-01-07T05:38:40.423Z,12.92
2023-01-07T05:41:09.689Z,12.87
2023-01-07T05:43:38.221Z,12.87
2023-01-07T05:46:06.869Z,12.87
2023-01-07T05:48:35.463Z,12.87
2023-01-07T05:51:03.919Z,12.85
2023-01-07T05:53:32.263Z,12.88
2023-01-07T05:56:02.445Z,12.87
2023-01-07T05:58:30.947Z,12.86
2023-01-07T06:00:59.513Z,12.85
2023-01-07T06:03:28.089Z,12.86
2023-01-07T06:05:56.523Z,12.85
2023-01-07T06:08:25.170Z,12.84
2023-01-07T06:10:53.480Z,12.82
2023-01-07T06:13:21.853Z,12.83
2023-01-07T06:15:50.385Z,12.82
2023-01-07T06:18:18.800Z,12.80
2023-01-07T06:20:47.282Z,12.80
2023-01-07T06:23:15.541Z,12.80
2023-01-07T06:25:43.927Z,12.82
2023-01-07T06:28:12.327Z,12.86
2023-01-07T06:30:40.681Z,12.85
2023-01-07T06:33:09.143Z,12.84
2023-01-07T06:35:37.428Z,12.83
2023-01-07T06:38:05.765Z,12.81
2023-01-07T06:40:34.490Z,12.80
2023-01-07T06:43:02.945Z,12.80
2023-01-07T06:45:31.281Z,12.80
2023-01-07T06:47:59.614Z,12.84
2023-01-07T06:50:28.097Z,12.86
2023-01-07T06:52:57.751Z,12.90
2023-01-07T06:55:26.169Z,12.91
2023-01-07T06:57:54.497Z,12.92
2023-01-07T07:00:23.262Z,12.94
2023-01-07T07:02:51.831Z,12.97
2023-01-07T07:05:20.307Z,13.01
2023-01-07T07:07:48.725Z,13.04
2023-01-07T07:10:17.158Z,13.04
2023-01-07T07:12:45.469Z,13.04
2023-01-07T07:15:13.844Z,13.03
2023-01-07T07:17:42.100Z,13.02
2023-01-07T07:20:11.361Z,13.02
2023-01-07T07:22:39.785Z,13.04
2023-01-07T07:25:08.684Z,13.04
2023-01-07T07:27:37.209Z,13.06
2023-01-07T07:30:06.164Z,13.05
2023-01-07T07:32:34.450Z,13.06
2023-01-07T07:35:02.805Z,13.06
2023-01-07T07:37:31.149Z,13.06
2023-01-07T07:39:59.505Z,13.06
2023-01-07T07:42:27.920Z,13.07
2023-01-07T07:44:56.304Z,13.06
2023-01-07T07:47:24.744Z,13.03
2023-01-07T07:49:53.222Z,13.00
2023-01-07T07:52:21.558Z,12.99
2023-01-07T07:54:50.007Z,13.00
2023-01-07T07:57:18.344Z,13.01
2023-01-07T07:59:46.664Z,13.01
2023-01-07T08:02:16.068Z,13.02
2023-01-07T08:04:44.325Z,13.00
2023-01-07T08:07:14.084Z,12.99
2023-01-07T08:10:01.067Z,12.96
2023-01-07T08:12:29.523Z,12.95
2023-01-07T08:14:57.851Z,12.95
2023-01-07T08:17:26.302Z,12.95
2023-01-07T08:19:54.644Z,12.94
2023-01-07T08:22:22.967Z,12.93
2023-01-07T08:24:51.260Z,12.91
2023-01-07T08:27:19.606Z,12.91
2023-01-07T08:29:48.141Z,12.90
2023-01-07T08:32:16.832Z,12.87
2023-01-07T08:34:45.210Z,12.87
2023-01-07T08:37:13.806Z,12.86
2023-01-07T08:39:42.164Z,12.84
2023-01-07T08:42:10.652Z,12.86
2023-01-07T08:44:39.131Z,12.85
2023-01-07T08:47:07.617Z,12.85
2023-01-07T08:49:35.953Z,12.85
2023-01-07T08:52:04.377Z,12.87
2023-01-07T08:54:32.725Z,12.88
2023-01-07T08:57:01.204Z,12.89
2023-01-07T08:59:29.489Z,12.88
2023-01-07T09:01:58.841Z,12.89
2023-01-07T09:04:27.439Z,12.91
2023-01-07T09:06:55.809Z,12.91
2023-01-07T09:09:24.247Z,12.91
2023-01-07T09:11:52.582Z,12.93
2023-01-07T09:14:20.887Z,12.96
2023-01-07T09:16:49.186Z,12.99
2023-01-07T09:19:17.716Z,13.00
2023-01-07T09:21:46.011Z,13.02
2023-01-07T09:24:14.485Z,13.00
2023-01-07T09:26:42.928Z,12.99
2023-01-07T09:29:11.763Z,12.98
2023-01-07T09:31:40.332Z,12.97
2023-01-07T09:34:08.728Z,12.96
2023-01-07T09:36:37.043Z,12.97
2023-01-07T09:39:06.163Z,12.98
2023-01-07T09:41:52.852Z,12.97
2023-01-07T09:44:21.124Z,12.96
2023-01-07T09:46:50.974Z,12.95
2023-01-07T09:49:20.668Z,12.95
2023-01-07T09:51:57.549Z,12.95
2023-01-07T09:54:33.687Z,12.92
2023-01-07T09:57:02.501Z,12.91
2023-01-07T09:59:31.209Z,12.91
2023-01-07T10:02:34.207Z,12.93
2023-01-07T10:05:39.444Z,12.95
2023-01-07T10:08:29.000Z,12.93
2023-01-07T10:11:24.391Z,12.93
2023-01-07T10:13:52.727Z,12.92
2023-01-07T10:16:53.082Z,12.93
2023-01-07T10:19:31.906Z,12.95
2023-01-07T10:22:05.845Z,12.96
2023-01-07T10:24:44.063Z,12.96
2023-01-07T10:27:16.229Z,12.98
2023-01-07T10:29:53.043Z,13.01
2023-01-07T10:32:25.637Z,12.99
2023-01-07T10:34:58.445Z,12.98
2023-01-07T10:37:34.169Z,12.97
2023-01-07T10:40:26.184Z,12.95
2023-01-07T10:43:06.334Z,12.95
2023-01-07T10:46:06.563Z,12.93
2023-01-07T10:48:43.285Z,12.93
2023-01-07T10:51:41.806Z,12.93
2023-01-07T10:54:50.244Z,12.93
2023-01-07T10:57:25.163Z,12.94
2023-01-07T10:59:57.551Z,12.94
2023-01-07T11:02:30.195Z,12.94
2023-01-07T11:05:00.759Z,12.93
2023-01-07T11:07:49.677Z,12.91
2023-01-07T11:10:24.853Z,12.89
2023-01-07T11:13:02.093Z,12.87
2023-01-07T11:15:38.583Z,12.84
2023-01-07T11:18:23.286Z,12.81
2023-01-07T11:21:00.262Z,12.81
2023-01-07T11:23:44.732Z,12.79
2023-01-07T11:26:26.483Z,12.79
2023-01-07T11:29:16.961Z,12.76
2023-01-07T11:31:58.367Z,12.75
2023-01-07T11:35:02.606Z,12.73
2023-01-07T11:37:39.893Z,12.75
2023-01-07T11:40:14.329Z,12.73
2023-01-07T11:43:22.035Z,12.72
2023-01-07T11:46:19.588Z,12.74
2023-01-07T11:49:03.764Z,12.74
2023-01-07T11:51:41.729Z,12.74
2023-01-07T11:54:27.244Z,12.72
2023-01-07T11:57:14.080Z,12.73
2023-01-07T11:59:42.485Z,12.73
2023-01-07T12:02:26.705Z,12.73
2023-01-07T12:05:19.931Z,12.72
2023-01-07T12:07:51.725Z,12.71
2023-01-07T12:10:36.065Z,12.68
2023-01-07T12:13:18.969Z,12.66
2023-01-07T12:15:55.287Z,12.65
2023-01-07T12:18:37.047Z,12.64
2023-01-07T12:21:36.852Z,12.64
2023-01-07T12:24:20.404Z,12.63
2023-01-07T12:27:15.772Z,12.63
2023-01-07T12:29:49.838Z,12.63
2023-01-07T12:32:43.928Z,12.63
2023-01-07T12:35:31.458Z,12.62
2023-01-07T12:38:18.304Z,12.63
2023-01-07T12:40:54.967Z,12.63
2023-01-07T12:43:33.923Z,12.62
2023-01-07T12:46:08.614Z,12.64
2023-01-07T12:49:17.385Z,12.65
2023-01-07T12:51:51.803Z,12.66
2023-01-07T12:54:41.702Z,12.66
2023-01-07T12:57:34.169Z,12.66
2023-01-07T13:00:32.087Z,12.65
2023-01-07T13:03:30.487Z,12.65
2023-01-07T13:06:09.700Z,12.66
2023-01-07T13:09:03.883Z,12.68
2023-01-07T13:12:02.643Z,12.67
2023-01-07T13:14:35.614Z,12.69
2023-01-07T13:17:21.865Z,12.71
2023-01-07T13:19:50.327Z,12.72
2023-01-07T13:22:37.811Z,12.71
2023-01-07T13:25:14.808Z,12.72
2023-01-07T13:28:01.564Z,12.73
2023-01-07T13:31:06.864Z,12.75
2023-01-07T13:34:10.199Z,12.76
2023-01-07T13:36:56.581Z,12.75
2023-01-07T13:39:49.170Z,12.75
2023-01-07T13:42:38.966Z,12.73
2023-01-07T13:45:23.914Z,12.70
2023-01-07T13:47:53.364Z,12.67
2023-01-07T13:50:36.973Z,12.64
2023-01-07T13:53:08.896Z,12.61
2023-01-07T13:55:47.132Z,12.57
2023-01-07T13:58:30.809Z,12.55
2023-01-07T14:01:11.565Z,12.51
2023-01-07T14:03:45.811Z,12.45
2023-01-07T14:06:20.766Z,12.43
2023-01-07T14:09:07.722Z,12.42
2023-01-07T14:11:45.535Z,12.41
2023-01-07T14:14:21.664Z,12.40
2023-01-07T14:16:56.084Z,12.38
2023-01-07T14:19:47.396Z,12.40
2023-01-07T14:22:21.865Z,12.40
2023-01-07T14:25:27.604Z,12.41
2023-01-07T14:27:58.326Z,12.40
2023-01-07T14:30:48.461Z,12.41
2023-01-07T14:33:28.930Z,12.43
2023-01-07T14:36:13.945Z,12.44
2023-01-07T14:38:44.677Z,12.45
2023-01-07T14:41:16.888Z,12.47
2023-01-07T14:43:46.485Z,12.47
2023-01-07T14:46:24.061Z,12.47
2023-01-07T14:49:04.340Z,12.45
2023-01-07T14:52:06.584Z,12.45
2023-01-07T14:54:43.788Z,12.45
2023-01-07T14:57:27.009Z,12.44
2023-01-07T15:00:42.806Z,12.47
2023-01-07T15:03:21.113Z,12.47
2023-01-07T15:06:10.640Z,12.45
2023-01-07T15:09:21.868Z,12.42
2023-01-07T15:12:11.227Z,12.39
2023-01-07T15:15:06.778Z,12.39
2023-01-07T15:17:39.446Z,12.37
2023-01-07T15:20:11.255Z,12.37
2023-01-07T15:22:50.651Z,12.40
2023-01-07T15:25:40.245Z,12.40
2023-01-07T15:28:14.068Z,12.39
2023-01-07T15:30:54.184Z,12.39
2023-01-07T15:33:41.329Z,12.39
2023-01-07T15:36:13.956Z,12.37
2023-01-07T15:38:48.408Z,12.37
2023-01-07T15:41:39.409Z,12.37
2023-01-07T15:44:41.696Z,12.38
2023-01-07T15:47:28.246Z,12.37
2023-01-07T15:49:56.561Z,12.39
2023-01-07T15:52:28.224Z,12.41
2023-01-07T15:54:56.527Z,12.45
2023-01-07T15:57:35.492Z,12.46
2023-01-07T16:00:03.921Z,12.44
2023-01-07T16:02:38.911Z,12.45
2023-01-07T16:05:08.528Z,12.47
2023-01-07T16:07:52.868Z,12.47
2023-01-07T16:10:35.811Z,12.49
2023-01-07T16:13:08.098Z,12.47
2023-01-07T16:15:38.979Z,12.47
2023-01-07T16:18:10.325Z,12.45
2023-01-07T16:20:44.403Z,12.46
2023-01-07T16:23:19.550Z,12.48
2023-01-07T16:25:50.192Z,12.49
2023-01-07T16:28:39.768Z,12.51
2023-01-07T16:31:13.105Z,12.53
2023-01-07T16:33:43.352Z,12.56
2023-01-07T16:36:33.847Z,12.62
2023-01-07T16:39:07.925Z,12.67
2023-01-07T16:41:36.575Z,12.71
2023-01-07T16:44:04.955Z,12.74
2023-01-07T16:46:39.320Z,12.77
2023-01-07T16:49:10.824Z,12.78
2023-01-07T16:51:41.525Z,12.80
2023-01-07T16:54:33.326Z,12.81
2023-01-07T16:57:26.545Z,12.82
2023-01-07T16:59:57.880Z,12.80
2023-01-07T17:02:32.728Z,12.77
2023-01-07T17:05:24.111Z,12.76
2023-01-07T17:07:59.625Z,12.74
2023-01-07T17:10:37.205Z,12.77
2023-01-07T17:13:24.041Z,12.81
2023-01-07T17:15:52.680Z,12.85
2023-01-07T17:18:28.568Z,12.90
2023-01-07T17:21:01.855Z,12.94
2023-01-07T17:23:33.546Z,12.98
2023-01-07T17:26:04.885Z,13.02
2023-01-07T17:28:56.839Z,13.05
2023-01-07T17:31:25.843Z,13.10
2023-01-07T17:33:55.283Z,13.14
2023-01-07T17:36:26.268Z,13.18
2023-01-07T17:38:54.962Z,13.22
2023-01-07T17:41:43.276Z,13.25
2023-01-07T17:44:13.785Z,13.30
2023-01-07T17:46:43.291Z,13.36
2023-01-07T17:49:14.925Z,13.38
2023-01-07T17:51:49.660Z,13.42
2023-01-07T17:54:24.204Z,13.44
2023-01-07T17:56:53.537Z,13.47
2023-01-07T17:59:23.987Z,13.50
2023-01-07T18:01:55.822Z,13.55
2023-01-07T18:04:24.572Z,13.57
2023-01-07T18:06:53.004Z,13.60
2023-01-07T18:09:21.373Z,13.64
2023-01-07T18:12:07.920Z,13.70
2023-01-07T18:14:36.395Z,13.73
2023-01-07T18:17:04.732Z,13.80
2023-01-07T18:19:33.188Z,13.85
2023-01-07T18:22:01.643Z,13.89
2023-01-07T18:24:30.169Z,13.91
2023-01-07T18:26:58.581Z,13.94
2023-01-07T18:29:26.907Z,13.98
2023-01-07T18:31:55.803Z,14.01
2023-01-07T18:34:24.847Z,14.04
2023-01-07T18:36:55.123Z,14.06
2023-01-07T18:39:23.615Z,14.09
2023-01-07T18:41:52.062Z,14.11
2023-01-07T18:44:22.159Z,14.12
2023-01-07T18:46:50.676Z,14.14
2023-01-07T18:49:19.104Z,14.17
2023-01-07T18:51:48.883Z,14.20
2023-01-07T18:54:17.692Z,14.23
2023-01-07T18:56:49.012Z,14.26
2023-01-07T18:59:17.367Z,14.26
2023-01-07T19:01:45.831Z,14.27
2023-01-07T19:04:14.548Z,14.26
2023-01-07T19:06:43.102Z,14.25
2023-01-07T19:09:11.466Z,14.27
2023-01-07T19:11:39.763Z,14.29
2023-01-07T19:14:08.007Z,14.30
2023-01-07T19:16:38.331Z,14.29
2023-01-07T19:19:07.620Z,14.31
2023-01-07T19:21:36.566Z,14.32
2023-01-07T19:24:05.443Z,14.32
2023-01-07T19:26:34.806Z,14.32
2023-01-07T19:29:04.335Z,14.33
2023-01-07T19:31:33.060Z,14.34
2023-01-07T19:34:01.537Z,14.34
2023-01-07T19:36:30.636Z,14.39
2023-01-07T19:38:59.443Z,14.47
2023-01-07T19:41:28.129Z,14.53
2023-01-07T19:44:01.523Z,14.60
2023-01-07T19:46:30.271Z,14.67
2023-01-07T19:48:58.626Z,14.73
2023-01-07T19:51:27.153Z,14.78
2023-01-07T19:53:55.462Z,14.82
2023-01-07T19:56:23.933Z,14.83
2023-01-07T19:58:55.119Z,14.87
2023-01-07T20:01:27.382Z,14.92
2023-01-07T20:03:58.037Z,15.00
2023-01-07T20:06:31.313Z,15.06
2023-01-07T20:09:00.041Z,15.13
2023-01-07T20:11:28.552Z,15.22
2023-01-07T20:13:56.839Z,15.30
2023-01-07T20:16:25.986Z,15.39
2023-01-07T20:18:57.077Z,15.48
2023-01-07T20:21:27.224Z,15.55
2023-01-07T20:23:56.408Z,15.62
2023-01-07T20:26:30.815Z,15.69
2023-01-07T20:29:00.264Z,15.79
2023-01-07T20:31:31.350Z,15.91
2023-01-07T20:34:01.042Z,15.98
2023-01-07T20:36:32.140Z,16.07
2023-01-07T20:39:06.434Z,16.15
2023-01-07T20:41:36.239Z,16.21
2023-01-07T20:44:06.902Z,16.24
2023-01-07T20:46:40.244Z,16.31
2023-01-07T20:49:09.364Z,16.34
2023-01-07T20:51:37.863Z,16.34
2023-01-07T20:54:06.314Z,16.35
2023-01-07T20:56:35.268Z,16.36
2023-01-07T20:59:03.777Z,16.36
2023-01-07T21:01:32.272Z,16.37
2023-01-07T21:04:02.649Z,16.37
2023-01-07T21:06:31.448Z,16.34
2023-01-07T21:08:59.945Z,16.30
2023-01-07T21:11:28.487Z,16.28
2023-01-07T21:13:57.312Z,16.25
2023-01-07T21:16:28.479Z,16.26
2023-01-07T21:18:57.545Z,16.28
2023-01-07T21:21:26.398Z,16.31
2023-01-07T21:23:58.004Z,16.33
2023-01-07T21:26:26.412Z,16.35
2023-01-07T21:28:59.933Z,16.39
2023-01-07T21:31:28.636Z,16.46
2023-01-07T21:33:58.478Z,16.54
2023-01-07T21:36:29.044Z,16.64
2023-01-07T21:38:59.428Z,16.74
2023-01-07T21:41:29.479Z,16.81
2023-01-07T21:43:58.526Z,16.88
2023-01-07T21:46:27.384Z,16.95
2023-01-07T21:48:56.887Z,17.07
2023-01-07T21:51:29.175Z,17.17
2023-01-07T21:53:58.927Z,17.13
2023-01-07T21:56:33.708Z,17.12
2023-01-07T21:59:02.304Z,17.10
2023-01-07T22:01:30.980Z,17.07
2023-01-07T22:04:00.787Z,17.09
2023-01-07T22:06:31.620Z,17.15
2023-01-07T22:09:03.135Z,17.17
2023-01-07T22:11:31.949Z,17.15
2023-01-07T22:14:01.775Z,17.17
2023-01-07T22:16:33.027Z,17.19
2023-01-07T22:19:02.262Z,17.23
2023-01-07T22:21:30.701Z,17.27
2023-01-07T22:23:59.257Z,17.29
2023-01-07T22:26:27.611Z,17.28
2023-01-07T22:29:02.894Z,17.32
2023-01-07T22:31:39.426Z,17.30
2023-01-07T22:34:09.179Z,17.25
2023-01-07T22:37:09.634Z,17.19
2023-01-07T22:39:45.433Z,17.13
2023-01-07T22:42:18.930Z,17.08
2023-01-07T22:44:51.648Z,17.01
2023-01-07T22:47:25.566Z,16.94
2023-01-07T22:49:54.851Z,16.87
2023-01-07T22:52:23.885Z,16.84
2023-01-07T22:54:52.189Z,16.78
2023-01-07T22:57:20.771Z,16.71
2023-01-07T22:59:49.041Z,16.63
2023-01-07T23:02:17.391Z,16.55
2023-01-07T23:04:45.829Z,16.53
2023-01-07T23:07:14.325Z,16.51
2023-01-07T23:09:42.669Z,16.47
2023-01-07T23:12:12.068Z,16.44
2023-01-07T23:14:40.515Z,16.43
2023-01-07T23:17:08.907Z,16.39
2023-01-07T23:19:37.399Z,16.36
2023-01-07T23:22:05.708Z,16.35
2023-01-07T23:24:36.706Z,16.31
2023-01-07T23:27:05.052Z,16.27
2023-01-07T23:29:33.297Z,16.24
2023-01-07T23:32:01.719Z,16.21
2023-01-07T23:34:30.161Z,16.20
2023-01-07T23:36:58.489Z,16.16
2023-01-07T23:39:26.806Z,16.02
2023-01-07T23:41:55.121Z,15.84
2023-01-07T23:44:23.618Z,15.71
2023-01-07T23:46:51.931Z,15.62
2023-01-07T23:49:20.246Z,15.57
2023-01-07T23:51:48.606Z,15.54
2023-01-07T23:54:17.044Z,15.49
2023-01-07T23:56:45.443Z,15.48
2023-01-07T23:59:14.031Z,15.44
